sensor_id;sensor_type;location;lat;lon;timestamp;P1;durP1;ratioP1;P2;durP2;ratioP2
39782;SDS011;25462;51.164;17.100;2023-05-16T00:02:22;26.30;;;17.70;;
39782;SDS011;25462;51.164;17.100;2023-05-16T00:07:26;20.90;;;16.00;;
39782;SDS011;25462;51.164;17.100;2023-05-16T00:12:30;22.00;;;14.50;;
39782;SDS011;25462;51.164;17.100;2023-05-16T00:17:37;17.30;;;13.90;;
39782;SDS011;25462;51.164;17.100;2023-05-16T00:22:41;19.10;;;13.60;;
39782;SDS011;25462;51.164;17.100;2023-05-16T00:27:46;18.40;;;13.30;;
39782;SDS011;25462;51.164;17.100;2023-05-16T00:32:51;22.90;;;16.60;;
39782;SDS011;25462;51.164;17.100;2023-05-16T00:37:58;17.90;;;14.50;;
39782;SDS011;25462;51.164;17.100;2023-05-16T00:43:02;19.90;;;15.30;;
39782;SDS011;25462;51.164;17.100;2023-05-16T00:48:06;21.10;;;15.90;;
39782;SDS011;25462;51.164;17.100;2023-05-16T00:53:12;22.20;;;17.40;;
39782;SDS011;25462;51.164;17.100;2023-05-16T00:58:16;24.90;;;15.30;;
39782;SDS011;25462;51.164;17.100;2023-05-16T01:03:20;19.20;;;16.00;;
39782;SDS011;25462;51.164;17.100;2023-05-16T01:08:25;21.60;;;14.50;;
39782;SDS011;25462;51.164;17.100;2023-05-16T01:13:34;20.20;;;16.40;;
39782;SDS011;25462;51.164;17.100;2023-05-16T01:24:33;24.40;;;16.40;;
39782;SDS011;25462;51.164;17.100;2023-05-16T01:29:46;18.10;;;14.60;;
39782;SDS011;25462;51.164;17.100;2023-05-16T01:34:50;19.80;;;14.00;;
39782;SDS011;25462;51.164;17.100;2023-05-16T01:40:02;20.90;;;15.90;;
39782;SDS011;25462;51.164;17.100;2023-05-16T01:45:20;25.10;;;18.50;;
39782;SDS011;25462;51.164;17.100;2023-05-16T01:50:27;18.30;;;15.90;;
39782;SDS011;25462;51.164;17.100;2023-05-16T01:55:41;19.20;;;15.00;;
39782;SDS011;25462;51.164;17.100;2023-05-16T02:00:47;20.20;;;14.70;;
39782;SDS011;25462;51.164;17.100;2023-05-16T02:05:51;17.20;;;14.00;;
39782;SDS011;25462;51.164;17.100;2023-05-16T02:10:55;18.70;;;14.50;;
39782;SDS011;25462;51.164;17.100;2023-05-16T02:15:59;22.70;;;16.90;;
39782;SDS011;25462;51.164;17.100;2023-05-16T02:21:03;21.20;;;16.70;;
39782;SDS011;25462;51.164;17.100;2023-05-16T02:26:07;23.10;;;16.60;;
39782;SDS011;25462;51.164;17.100;2023-05-16T02:31:11;21.50;;;17.40;;
39782;SDS011;25462;51.164;17.100;2023-05-16T02:36:16;23.30;;;18.80;;
39782;SDS011;25462;51.164;17.100;2023-05-16T02:41:20;22.00;;;17.30;;
39782;SDS011;25462;51.164;17.100;2023-05-16T02:46:25;22.70;;;17.50;;
39782;SDS011;25462;51.164;17.100;2023-05-16T02:51:31;22.00;;;17.00;;
39782;SDS011;25462;51.164;17.100;2023-05-16T02:56:35;20.50;;;16.40;;
39782;SDS011;25462;51.164;17.100;2023-05-16T03:01:39;19.10;;;16.00;;
39782;SDS011;25462;51.164;17.100;2023-05-16T03:06:43;23.50;;;17.90;;
39782;SDS011;25462;51.164;17.100;2023-05-16T03:11:47;22.30;;;15.80;;
39782;SDS011;25462;51.164;17.100;2023-05-16T03:16:54;22.70;;;18.00;;
39782;SDS011;25462;51.164;17.100;2023-05-16T03:21:58;22.20;;;17.20;;
39782;SDS011;25462;51.164;17.100;2023-05-16T03:27:02;20.10;;;16.20;;
39782;SDS011;25462;51.164;17.100;2023-05-16T03:32:07;20.10;;;16.80;;
39782;SDS011;25462;51.164;17.100;2023-05-16T03:37:14;21.80;;;18.30;;
39782;SDS011;25462;51.164;17.100;2023-05-16T03:42:18;25.40;;;20.10;;
39782;SDS011;25462;51.164;17.100;2023-05-16T03:47:23;35.30;;;23.30;;
39782;SDS011;25462;51.164;17.100;2023-05-16T03:52:27;26.20;;;21.30;;
39782;SDS011;25462;51.164;17.100;2023-05-16T03:57:31;23.20;;;20.30;;
39782;SDS011;25462;51.164;17.100;2023-05-16T04:02:37;21.40;;;15.60;;
39782;SDS011;25462;51.164;17.100;2023-05-16T04:07:43;15.00;;;11.60;;
39782;SDS011;25462;51.164;17.100;2023-05-16T04:12:46;13.30;;;8.50;;
39782;SDS011;25462;51.164;17.100;2023-05-16T04:17:51;13.10;;;8.60;;
39782;SDS011;25462;51.164;17.100;2023-05-16T04:22:54;10.90;;;7.90;;
39782;SDS011;25462;51.164;17.100;2023-05-16T04:27:58;13.10;;;7.20;;
39782;SDS011;25462;51.164;17.100;2023-05-16T04:33:02;9.30;;;7.50;;
39782;SDS011;25462;51.164;17.100;2023-05-16T04:38:06;13.80;;;7.10;;
39782;SDS011;25462;51.164;17.100;2023-05-16T04:43:12;11.60;;;7.50;;
39782;SDS011;25462;51.164;17.100;2023-05-16T04:48:15;12.50;;;6.90;;
39782;SDS011;25462;51.164;17.100;2023-05-16T04:53:19;13.70;;;7.80;;
39782;SDS011;25462;51.164;17.100;2023-05-16T04:58:23;8.30;;;6.40;;
39782;SDS011;25462;51.164;17.100;2023-05-16T05:03:27;8.10;;;6.60;;
39782;SDS011;25462;51.164;17.100;2023-05-16T05:08:31;9.80;;;6.70;;
39782;SDS011;25462;51.164;17.100;2023-05-16T05:13:35;8.40;;;6.60;;
39782;SDS011;25462;51.164;17.100;2023-05-16T05:18:39;11.10;;;7.20;;
39782;SDS011;25462;51.164;17.100;2023-05-16T05:23:43;10.40;;;7.70;;
39782;SDS011;25462;51.164;17.100;2023-05-16T05:28:47;11.30;;;7.40;;
39782;SDS011;25462;51.164;17.100;2023-05-16T05:34:07;10.40;;;8.90;;
39782;SDS011;25462;51.164;17.100;2023-05-16T05:39:11;9.80;;;7.60;;
39782;SDS011;25462;51.164;17.100;2023-05-16T05:44:15;10.40;;;8.30;;
39782;SDS011;25462;51.164;17.100;2023-05-16T05:49:19;9.40;;;8.00;;
39782;SDS011;25462;51.164;17.100;2023-05-16T05:54:23;12.30;;;8.00;;
39782;SDS011;25462;51.164;17.100;2023-05-16T05:59:27;9.20;;;8.30;;
39782;SDS011;25462;51.164;17.100;2023-05-16T06:04:30;9.20;;;8.10;;
39782;SDS011;25462;51.164;17.100;2023-05-16T06:09:35;12.00;;;8.80;;
39782;SDS011;25462;51.164;17.100;2023-05-16T06:14:38;13.40;;;9.00;;
39782;SDS011;25462;51.164;17.100;2023-05-16T06:19:43;10.40;;;8.80;;
39782;SDS011;25462;51.164;17.100;2023-05-16T06:24:47;10.10;;;9.00;;
39782;SDS011;25462;51.164;17.100;2023-05-16T06:29:51;11.40;;;9.20;;
39782;SDS011;25462;51.164;17.100;2023-05-16T06:34:54;10.60;;;8.20;;
39782;SDS011;25462;51.164;17.100;2023-05-16T06:39:58;10.10;;;7.90;;
39782;SDS011;25462;51.164;17.100;2023-05-16T06:45:02;10.20;;;8.90;;
39782;SDS011;25462;51.164;17.100;2023-05-16T06:50:06;10.30;;;9.20;;
39782;SDS011;25462;51.164;17.100;2023-05-16T06:55:10;11.80;;;8.70;;
39782;SDS011;25462;51.164;17.100;2023-05-16T07:00:18;11.20;;;9.30;;
39782;SDS011;25462;51.164;17.100;2023-05-16T07:05:22;11.70;;;9.30;;
39782;SDS011;25462;51.164;17.100;2023-05-16T07:10:26;11.30;;;9.80;;
39782;SDS011;25462;51.164;17.100;2023-05-16T07:15:30;12.70;;;9.70;;
39782;SDS011;25462;51.164;17.100;2023-05-16T07:20:34;14.20;;;8.80;;
39782;SDS011;25462;51.164;17.100;2023-05-16T07:25:38;11.40;;;9.60;;
39782;SDS011;25462;51.164;17.100;2023-05-16T07:30:43;11.30;;;8.90;;
39782;SDS011;25462;51.164;17.100;2023-05-16T07:35:50;10.30;;;9.10;;
39782;SDS011;25462;51.164;17.100;2023-05-16T07:41:10;12.30;;;9.40;;
39782;SDS011;25462;51.164;17.100;2023-05-16T07:46:14;10.10;;;9.10;;
39782;SDS011;25462;51.164;17.100;2023-05-16T07:51:18;12.80;;;8.90;;
39782;SDS011;25462;51.164;17.100;2023-05-16T07:56:22;10.50;;;9.30;;
39782;SDS011;25462;51.164;17.100;2023-05-16T08:01:26;8.70;;;7.20;;
39782;SDS011;25462;51.164;17.100;2023-05-16T08:06:30;12.10;;;8.60;;
39782;SDS011;25462;51.164;17.100;2023-05-16T08:11:34;11.50;;;8.70;;
39782;SDS011;25462;51.164;17.100;2023-05-16T08:16:38;10.40;;;8.30;;
39782;SDS011;25462;51.164;17.100;2023-05-16T08:21:42;9.60;;;8.30;;
39782;SDS011;25462;51.164;17.100;2023-05-16T08:26:46;11.20;;;8.10;;
39782;SDS011;25462;51.164;17.100;2023-05-16T08:31:50;9.20;;;7.20;;
39782;SDS011;25462;51.164;17.100;2023-05-16T08:36:54;9.90;;;7.40;;
39782;SDS011;25462;51.164;17.100;2023-05-16T08:41:58;8.30;;;6.70;;
39782;SDS011;25462;51.164;17.100;2023-05-16T08:47:10;8.40;;;7.00;;
39782;SDS011;25462;51.164;17.100;2023-05-16T08:52:19;8.20;;;7.10;;
39782;SDS011;25462;51.164;17.100;2023-05-16T08:57:30;7.40;;;6.30;;
39782;SDS011;25462;51.164;17.100;2023-05-16T09:02:39;11.70;;;6.70;;
39782;SDS011;25462;51.164;17.100;2023-05-16T09:07:45;9.40;;;7.70;;
39782;SDS011;25462;51.164;17.100;2023-05-16T09:12:49;10.60;;;6.80;;
39782;SDS011;25462;51.164;17.100;2023-05-16T09:17:54;10.10;;;6.30;;
39782;SDS011;25462;51.164;17.100;2023-05-16T09:22:58;8.40;;;6.40;;
39782;SDS011;25462;51.164;17.100;2023-05-16T09:28:02;7.30;;;5.50;;
39782;SDS011;25462;51.164;17.100;2023-05-16T09:33:07;8.50;;;6.70;;
39782;SDS011;25462;51.164;17.100;2023-05-16T09:38:14;8.00;;;6.30;;
39782;SDS011;25462;51.164;17.100;2023-05-16T09:43:21;10.20;;;6.40;;
39782;SDS011;25462;51.164;17.100;2023-05-16T09:48:28;8.30;;;5.60;;
39782;SDS011;25462;51.164;17.100;2023-05-16T09:53:32;8.30;;;6.00;;
39782;SDS011;25462;51.164;17.100;2023-05-16T09:58:37;8.40;;;6.20;;
39782;SDS011;25462;51.164;17.100;2023-05-16T10:03:43;6.90;;;5.50;;
39782;SDS011;25462;51.164;17.100;2023-05-16T10:08:47;8.30;;;5.30;;
39782;SDS011;25462;51.164;17.100;2023-05-16T10:13:52;5.70;;;5.10;;
39782;SDS011;25462;51.164;17.100;2023-05-16T10:18:57;7.20;;;6.00;;
39782;SDS011;25462;51.164;17.100;2023-05-16T10:24:05;6.00;;;5.30;;
39782;SDS011;25462;51.164;17.100;2023-05-16T10:29:09;7.70;;;5.30;;
39782;SDS011;25462;51.164;17.100;2023-05-16T10:34:15;5.90;;;5.30;;
39782;SDS011;25462;51.164;17.100;2023-05-16T10:39:20;8.40;;;6.70;;
39782;SDS011;25462;51.164;17.100;2023-05-16T10:44:24;8.40;;;7.20;;
39782;SDS011;25462;51.164;17.100;2023-05-16T10:49:29;9.30;;;6.90;;
39782;SDS011;25462;51.164;17.100;2023-05-16T10:54:34;10.10;;;7.60;;
39782;SDS011;25462;51.164;17.100;2023-05-16T10:59:54;7.90;;;7.10;;
39782;SDS011;25462;51.164;17.100;2023-05-16T11:05:04;7.10;;;5.80;;
39782;SDS011;25462;51.164;17.100;2023-05-16T11:10:15;14.10;;;8.80;;
39782;SDS011;25462;51.164;17.100;2023-05-16T11:15:23;11.20;;;8.30;;
39782;SDS011;25462;51.164;17.100;2023-05-16T11:20:33;12.40;;;9.80;;
39782;SDS011;25462;51.164;17.100;2023-05-16T11:25:37;13.90;;;11.80;;
39782;SDS011;25462;51.164;17.100;2023-05-16T11:30:47;15.50;;;12.00;;
39782;SDS011;25462;51.164;17.100;2023-05-16T11:36:03;14.60;;;10.90;;
39782;SDS011;25462;51.164;17.100;2023-05-16T11:41:15;14.40;;;12.20;;
39782;SDS011;25462;51.164;17.100;2023-05-16T11:46:20;14.20;;;11.00;;
39782;SDS011;25462;51.164;17.100;2023-05-16T11:51:24;15.20;;;11.40;;
39782;SDS011;25462;51.164;17.100;2023-05-16T11:56:29;13.10;;;11.30;;
39782;SDS011;25462;51.164;17.100;2023-05-16T12:01:35;12.80;;;10.10;;
39782;SDS011;25462;51.164;17.100;2023-05-16T12:06:40;13.30;;;11.30;;
39782;SDS011;25462;51.164;17.100;2023-05-16T12:11:50;16.10;;;12.60;;
39782;SDS011;25462;51.164;17.100;2023-05-16T12:16:55;16.40;;;12.40;;
39782;SDS011;25462;51.164;17.100;2023-05-16T12:21:59;15.70;;;12.40;;
39782;SDS011;25462;51.164;17.100;2023-05-16T12:27:04;13.30;;;11.90;;
39782;SDS011;25462;51.164;17.100;2023-05-16T12:32:08;14.30;;;12.00;;
39782;SDS011;25462;51.164;17.100;2023-05-16T12:37:13;13.10;;;10.40;;
39782;SDS011;25462;51.164;17.100;2023-05-16T12:42:17;15.90;;;12.70;;
39782;SDS011;25462;51.164;17.100;2023-05-16T12:47:22;16.90;;;11.70;;
39782;SDS011;25462;51.164;17.100;2023-05-16T12:52:27;15.90;;;12.50;;
39782;SDS011;25462;51.164;17.100;2023-05-16T12:57:31;16.60;;;13.20;;
39782;SDS011;25462;51.164;17.100;2023-05-16T13:02:38;25.70;;;14.20;;
39782;SDS011;25462;51.164;17.100;2023-05-16T13:07:43;14.50;;;12.50;;
39782;SDS011;25462;51.164;17.100;2023-05-16T13:12:47;16.00;;;13.20;;
39782;SDS011;25462;51.164;17.100;2023-05-16T13:17:51;17.20;;;14.40;;
39782;SDS011;25462;51.164;17.100;2023-05-16T13:22:55;17.70;;;13.60;;
39782;SDS011;25462;51.164;17.100;2023-05-16T13:28:00;17.20;;;12.90;;
39782;SDS011;25462;51.164;17.100;2023-05-16T13:33:04;19.20;;;14.70;;
39782;SDS011;25462;51.164;17.100;2023-05-16T13:38:09;17.80;;;15.70;;
39782;SDS011;25462;51.164;17.100;2023-05-16T13:43:14;19.30;;;13.50;;
39782;SDS011;25462;51.164;17.100;2023-05-16T13:48:18;19.00;;;15.70;;
39782;SDS011;25462;51.164;17.100;2023-05-16T13:53:23;20.20;;;15.20;;
39782;SDS011;25462;51.164;17.100;2023-05-16T13:58:27;16.60;;;13.90;;
39782;SDS011;25462;51.164;17.100;2023-05-16T14:03:31;23.70;;;17.20;;
39782;SDS011;25462;51.164;17.100;2023-05-16T14:08:36;26.60;;;19.60;;
39782;SDS011;25462;51.164;17.100;2023-05-16T14:13:40;24.10;;;18.90;;
39782;SDS011;25462;51.164;17.100;2023-05-16T14:18:44;21.40;;;16.40;;
39782;SDS011;25462;51.164;17.100;2023-05-16T14:23:48;25.00;;;18.70;;
39782;SDS011;25462;51.164;17.100;2023-05-16T14:28:54;30.60;;;20.30;;
39782;SDS011;25462;51.164;17.100;2023-05-16T14:33:59;29.90;;;20.70;;
39782;SDS011;25462;51.164;17.100;2023-05-16T14:39:03;35.30;;;23.70;;
39782;SDS011;25462;51.164;17.100;2023-05-16T14:44:07;32.70;;;22.80;;
39782;SDS011;25462;51.164;17.100;2023-05-16T14:49:13;35.70;;;24.80;;
39782;SDS011;25462;51.164;17.100;2023-05-16T14:54:21;34.00;;;23.40;;
39782;SDS011;25462;51.164;17.100;2023-05-16T14:59:26;30.80;;;19.50;;
39782;SDS011;25462;51.164;17.100;2023-05-16T15:04:30;30.50;;;19.40;;
39782;SDS011;25462;51.164;17.100;2023-05-16T15:09:34;33.90;;;21.70;;
39782;SDS011;25462;51.164;17.100;2023-05-16T15:14:38;28.40;;;18.20;;
39782;SDS011;25462;51.164;17.100;2023-05-16T15:19:42;30.40;;;19.90;;
39782;SDS011;25462;51.164;17.100;2023-05-16T15:24:47;28.10;;;18.90;;
39782;SDS011;25462;51.164;17.100;2023-05-16T15:30:00;25.50;;;17.50;;
39782;SDS011;25462;51.164;17.100;2023-05-16T15:35:04;23.00;;;16.80;;
39782;SDS011;25462;51.164;17.100;2023-05-16T15:40:09;27.50;;;19.40;;
39782;SDS011;25462;51.164;17.100;2023-05-16T15:45:13;22.70;;;16.30;;
39782;SDS011;25462;51.164;17.100;2023-05-16T15:50:17;21.20;;;14.70;;
39782;SDS011;25462;51.164;17.100;2023-05-16T15:55:20;30.60;;;22.40;;
39782;SDS011;25462;51.164;17.100;2023-05-16T16:00:24;27.30;;;20.30;;
39782;SDS011;25462;51.164;17.100;2023-05-16T16:05:28;31.40;;;22.00;;
39782;SDS011;25462;51.164;17.100;2023-05-16T16:10:32;27.20;;;20.60;;
39782;SDS011;25462;51.164;17.100;2023-05-16T16:15:37;30.10;;;21.50;;
39782;SDS011;25462;51.164;17.100;2023-05-16T16:20:41;33.30;;;21.80;;
39782;SDS011;25462;51.164;17.100;2023-05-16T16:25:45;26.20;;;21.00;;
39782;SDS011;25462;51.164;17.100;2023-05-16T16:30:49;28.60;;;20.90;;
39782;SDS011;25462;51.164;17.100;2023-05-16T16:35:53;27.90;;;20.90;;
39782;SDS011;25462;51.164;17.100;2023-05-16T16:40:57;25.80;;;19.60;;
39782;SDS011;25462;51.164;17.100;2023-05-16T16:46:01;23.90;;;19.80;;
39782;SDS011;25462;51.164;17.100;2023-05-16T16:51:05;23.40;;;18.00;;
39782;SDS011;25462;51.164;17.100;2023-05-16T16:56:09;25.10;;;19.50;;
39782;SDS011;25462;51.164;17.100;2023-05-16T17:01:13;28.00;;;19.00;;
39782;SDS011;25462;51.164;17.100;2023-05-16T17:06:17;25.70;;;17.90;;
39782;SDS011;25462;51.164;17.100;2023-05-16T17:11:21;27.10;;;18.30;;
39782;SDS011;25462;51.164;17.100;2023-05-16T17:16:25;24.70;;;19.70;;
39782;SDS011;25462;51.164;17.100;2023-05-16T17:21:34;29.90;;;21.20;;
39782;SDS011;25462;51.164;17.100;2023-05-16T17:26:39;28.90;;;19.50;;
39782;SDS011;25462;51.164;17.100;2023-05-16T17:31:43;28.50;;;18.90;;
39782;SDS011;25462;51.164;17.100;2023-05-16T17:36:53;28.50;;;20.20;;
39782;SDS011;25462;51.164;17.100;2023-05-16T17:41:56;25.90;;;20.20;;
39782;SDS011;25462;51.164;17.100;2023-05-16T17:47:02;28.70;;;21.00;;
39782;SDS011;25462;51.164;17.100;2023-05-16T17:52:09;31.50;;;22.00;;
39782;SDS011;25462;51.164;17.100;2023-05-16T17:57:13;29.90;;;21.00;;
39782;SDS011;25462;51.164;17.100;2023-05-16T18:02:17;28.50;;;20.80;;
39782;SDS011;25462;51.164;17.100;2023-05-16T18:07:23;27.90;;;22.00;;
39782;SDS011;25462;51.164;17.100;2023-05-16T18:12:30;36.40;;;24.10;;
39782;SDS011;25462;51.164;17.100;2023-05-16T18:17:34;32.60;;;22.80;;
39782;SDS011;25462;51.164;17.100;2023-05-16T18:22:38;30.60;;;21.60;;
39782;SDS011;25462;51.164;17.100;2023-05-16T18:27:42;31.10;;;22.70;;
39782;SDS011;25462;51.164;17.100;2023-05-16T18:32:49;35.90;;;23.60;;
39782;SDS011;25462;51.164;17.100;2023-05-16T18:37:53;37.20;;;25.30;;
39782;SDS011;25462;51.164;17.100;2023-05-16T18:42:58;36.30;;;25.20;;
39782;SDS011;25462;51.164;17.100;2023-05-16T18:48:02;29.60;;;21.40;;
39782;SDS011;25462;51.164;17.100;2023-05-16T18:53:08;33.90;;;22.90;;
39782;SDS011;25462;51.164;17.100;2023-05-16T18:58:12;31.80;;;22.80;;
39782;SDS011;25462;51.164;17.100;2023-05-16T19:03:18;29.40;;;21.20;;
39782;SDS011;25462;51.164;17.100;2023-05-16T19:08:23;32.00;;;22.80;;
39782;SDS011;25462;51.164;17.100;2023-05-16T19:13:40;40.70;;;27.70;;
39782;SDS011;25462;51.164;17.100;2023-05-16T19:18:45;34.00;;;23.90;;
39782;SDS011;25462;51.164;17.100;2023-05-16T19:23:50;40.00;;;29.00;;
39782;SDS011;25462;51.164;17.100;2023-05-16T19:28:55;36.80;;;28.20;;
39782;SDS011;25462;51.164;17.100;2023-05-16T19:34:04;39.90;;;27.90;;
39782;SDS011;25462;51.164;17.100;2023-05-16T19:39:08;42.20;;;28.20;;
39782;SDS011;25462;51.164;17.100;2023-05-16T19:44:13;40.10;;;27.50;;
39782;SDS011;25462;51.164;17.100;2023-05-16T19:49:17;33.60;;;24.60;;
39782;SDS011;25462;51.164;17.100;2023-05-16T19:54:23;37.00;;;27.10;;
39782;SDS011;25462;51.164;17.100;2023-05-16T19:59:27;32.60;;;25.30;;
39782;SDS011;25462;51.164;17.100;2023-05-16T20:04:31;36.90;;;26.90;;
39782;SDS011;25462;51.164;17.100;2023-05-16T20:09:35;32.70;;;25.90;;
39782;SDS011;25462;51.164;17.100;2023-05-16T20:14:39;39.50;;;26.30;;
39782;SDS011;25462;51.164;17.100;2023-05-16T20:19:44;39.00;;;25.20;;
39782;SDS011;25462;51.164;17.100;2023-05-16T20:24:50;28.30;;;21.10;;
39782;SDS011;25462;51.164;17.100;2023-05-16T20:29:54;25.10;;;20.20;;
39782;SDS011;25462;51.164;17.100;2023-05-16T20:35:00;29.60;;;21.90;;
39782;SDS011;25462;51.164;17.100;2023-05-16T20:40:08;32.00;;;21.20;;
39782;SDS011;25462;51.164;17.100;2023-05-16T20:45:13;32.50;;;20.00;;
39782;SDS011;25462;51.164;17.100;2023-05-16T20:50:17;27.70;;;19.50;;
39782;SDS011;25462;51.164;17.100;2023-05-16T20:55:22;31.00;;;21.70;;
39782;SDS011;25462;51.164;17.100;2023-05-16T21:00:28;26.90;;;19.10;;
39782;SDS011;25462;51.164;17.100;2023-05-16T21:05:36;29.10;;;20.60;;
39782;SDS011;25462;51.164;17.100;2023-05-16T21:10:40;34.50;;;22.30;;
39782;SDS011;25462;51.164;17.100;2023-05-16T21:15:45;28.10;;;21.70;;
39782;SDS011;25462;51.164;17.100;2023-05-16T21:20:49;27.50;;;20.00;;
39782;SDS011;25462;51.164;17.100;2023-05-16T21:25:53;36.70;;;24.30;;
39782;SDS011;25462;51.164;17.100;2023-05-16T21:30:58;35.80;;;24.30;;
39782;SDS011;25462;51.164;17.100;2023-05-16T21:36:02;36.50;;;23.60;;
39782;SDS011;25462;51.164;17.100;2023-05-16T21:41:06;36.00;;;24.00;;
39782;SDS011;25462;51.164;17.100;2023-05-16T21:46:10;30.10;;;22.70;;
39782;SDS011;25462;51.164;17.100;2023-05-16T21:51:17;32.30;;;23.70;;
39782;SDS011;25462;51.164;17.100;2023-05-16T21:56:23;34.00;;;22.60;;
39782;SDS011;25462;51.164;17.100;2023-05-16T22:01:34;30.40;;;22.20;;
39782;SDS011;25462;51.164;17.100;2023-05-16T22:06:38;33.60;;;23.40;;
39782;SDS011;25462;51.164;17.100;2023-05-16T22:11:42;34.20;;;22.80;;
39782;SDS011;25462;51.164;17.100;2023-05-16T22:16:46;34.50;;;23.20;;
39782;SDS011;25462;51.164;17.100;2023-05-16T22:21:49;30.70;;;22.40;;
39782;SDS011;25462;51.164;17.100;2023-05-16T22:26:53;33.10;;;23.30;;
39782;SDS011;25462;51.164;17.100;2023-05-16T22:31:57;33.20;;;22.70;;
39782;SDS011;25462;51.164;17.100;2023-05-16T22:37:01;39.90;;;23.80;;
39782;SDS011;25462;51.164;17.100;2023-05-16T22:42:08;29.60;;;20.50;;
39782;SDS011;25462;51.164;17.100;2023-05-16T22:47:13;38.30;;;23.50;;
39782;SDS011;25462;51.164;17.100;2023-05-16T22:52:17;31.40;;;21.70;;
39782;SDS011;25462;51.164;17.100;2023-05-16T22:57:21;34.40;;;22.60;;
39782;SDS011;25462;51.164;17.100;2023-05-16T23:02:28;34.70;;;21.20;;
39782;SDS011;25462;51.164;17.100;2023-05-16T23:07:33;29.20;;;21.80;;
39782;SDS011;25462;51.164;17.100;2023-05-16T23:12:37;29.50;;;21.00;;
39782;SDS011;25462;51.164;17.100;2023-05-16T23:17:42;27.30;;;20.60;;
39782;SDS011;25462;51.164;17.100;2023-05-16T23:22:47;27.90;;;20.20;;
39782;SDS011;25462;51.164;17.100;2023-05-16T23:27:50;32.40;;;22.30;;
39782;SDS011;25462;51.164;17.100;2023-05-16T23:32:56;35.20;;;22.70;;
39782;SDS011;25462;51.164;17.100;2023-05-16T23:38:00;34.90;;;22.60;;
39782;SDS011;25462;51.164;17.100;2023-05-16T23:43:06;30.20;;;21.30;;
39782;SDS011;25462;51.164;17.100;2023-05-16T23:48:11;36.60;;;23.60;;
39782;SDS011;25462;51.164;17.100;2023-05-16T23:53:18;30.50;;;22.60;;
39782;SDS011;25462;51.164;17.100;2023-05-16T23:58:22;32.20;;;22.70;;
